Time;durP1;ratioP1;P1;durP2;ratioP2;P2;SDS_P1;SDS_P2;PMS_P1;PMS_P2;Temp;Humidity;BMP_temperature;BMP_pressure;BME280_temperature;BME280_humidity;BME280_pressure;Samples;Min_cycle;Max_cycle;Signal;HPM_P1;HPM_P2
2022/04/28 00:01:48;;;;;;;4.82;2.88;;;;;;;17.93;33.35;102530.34;5053991;28;20108;-66
2022/04/28 00:04:13;;;;;;;4.55;3.25;;;;;;;17.87;33.94;102530.88;5036242;28;20454;-65
2022/04/28 00:06:39;;;;;;;4.13;2.63;;;;;;;17.79;33.93;102533.41;5054027;28;20432;-66
2022/04/28 00:09:05;;;;;;;3.63;2.53;;;;;;;17.70;34.97;102534.19;5053789;28;20017;-65
2022/04/28 00:11:31;;;;;;;7.97;3.10;;;;;;;17.61;34.64;102536.84;5054152;28;20478;-65
2022/04/28 00:13:58;;;;;;;4.82;3.30;;;;;;;17.51;34.86;102539.47;5053915;28;20025;-65
2022/04/28 00:16:24;;;;;;;3.78;3.13;;;;;;;17.42;35.09;102534.81;5053830;28;20021;-65
2022/04/28 00:18:49;;;;;;;4.75;2.60;;;;;;;17.33;34.85;102532.94;5053760;28;20033;-65
2022/04/28 00:21:15;;;;;;;7.75;2.85;;;;;;;17.27;33.99;102536.16;5053816;28;20111;-65
2022/04/28 00:23:40;;;;;;;7.05;3.95;;;;;;;17.21;34.79;102536.66;5053437;28;20021;-65
2022/04/28 00:26:05;;;;;;;6.05;2.92;;;;;;;17.16;33.85;102539.78;5053468;28;20036;-66
2022/04/28 00:28:30;;;;;;;6.57;3.05;;;;;;;17.09;35.18;102533.16;5053842;28;20104;-66
2022/04/28 00:30:56;;;;;;;7.68;2.90;;;;;;;17.01;34.84;102534.78;5053098;28;20100;-68
2022/04/28 00:33:21;;;;;;;8.45;2.78;;;;;;;16.93;35.48;102538.16;5053303;28;20068;-66
2022/04/28 00:35:47;;;;;;;8.57;2.83;;;;;;;16.85;35.15;102537.94;5035643;28;20387;-66
2022/04/28 00:38:13;;;;;;;6.55;2.70;;;;;;;16.78;35.44;102528.59;5053439;28;20075;-65
2022/04/28 00:40:38;;;;;;;4.82;2.90;;;;;;;16.68;34.55;102528.50;5053398;28;20017;-65
2022/04/28 00:43:19;;;;;;;5.60;2.50;;;;;;;16.61;34.73;102526.44;5053737;28;20021;-66
2022/04/28 00:45:45;;;;;;;4.65;3.17;;;;;;;16.54;34.54;102531.50;5053309;28;20024;-66
2022/04/28 00:50:57;;;;;;;4.50;2.65;;;;;;;16.44;35.24;102519.69;5052136;28;20035;-66
2022/04/28 00:53:22;;;;;;;7.38;2.97;;;;;;;16.43;35.92;102527.91;5015781;28;20113;-66
2022/04/28 00:55:48;;;;;;;6.38;2.58;;;;;;;16.41;34.69;102524.47;5015646;28;20486;-66
2022/04/28 00:58:13;;;;;;;4.90;2.60;;;;;;;16.39;35.59;102532.69;5033245;28;20021;-65
2022/04/28 01:00:40;;;;;;;5.70;3.03;;;;;;;16.35;36.62;102533.94;5043176;28;20462;-65
2022/04/28 01:03:05;;;;;;;5.00;2.70;;;;;;;16.31;35.75;102530.63;5053394;28;20025;-65
2022/04/28 01:05:32;;;;;;;8.43;3.42;;;;;;;16.28;35.41;102527.31;5052509;28;20087;-65
2022/04/28 01:07:57;;;;;;;6.45;2.83;;;;;;;16.24;36.70;102528.56;5056946;28;20467;-65
2022/04/28 01:10:23;;;;;;;9.48;3.55;;;;;;;16.21;35.13;102531.50;5057202;28;20078;-64
2022/04/28 01:12:49;;;;;;;11.10;3.28;;;;;;;16.22;36.82;102525.09;5057498;28;20059;-66
2022/04/28 01:15:14;;;;;;;10.27;3.53;;;;;;;16.24;35.43;102523.13;5056994;28;20021;-65
2022/04/28 01:17:39;;;;;;;6.93;3.03;;;;;;;16.28;35.33;102522.75;5056834;28;20083;-66
2022/04/28 01:20:05;;;;;;;9.68;2.90;;;;;;;16.31;35.23;102529.75;5056579;28;20048;-65
2022/04/28 01:22:31;;;;;;;15.23;2.97;;;;;;;16.35;36.93;102522.25;5056771;28;20111;-65
2022/04/28 01:25:04;;;;;;;8.20;3.47;;;;;;;16.35;36.25;102515.00;5056968;28;20423;-65
2022/04/28 01:27:29;;;;;;;11.43;3.38;;;;;;;16.35;35.99;102519.56;5056788;28;20116;-65
2022/04/28 01:29:55;;;;;;;5.03;2.80;;;;;;;16.33;35.68;102521.53;5056549;28;20385;-65
2022/04/28 01:32:20;;;;;;;7.70;2.88;;;;;;;16.33;35.46;102527.81;5055362;28;20028;-66
2022/04/28 01:34:45;;;;;;;4.68;2.80;;;;;;;16.33;35.96;102526.94;5056362;28;20045;-65
2022/04/28 01:37:11;;;;;;;6.00;2.22;;;;;;;16.31;35.84;102524.34;5056583;28;20537;-65
2022/04/28 01:39:36;;;;;;;8.02;3.60;;;;;;;16.27;36.38;102539.13;5056602;28;20440;-65
2022/04/28 01:42:01;;;;;;;5.30;2.83;;;;;;;16.25;36.57;102532.94;5056616;28;20360;-64
2022/04/28 01:44:27;;;;;;;5.30;2.85;;;;;;;16.19;36.90;102531.59;5056773;28;20383;-66
2022/04/28 01:46:52;;;;;;;5.22;2.65;;;;;;;16.16;35.66;102536.44;5055065;28;20110;-65
2022/04/28 01:49:17;;;;;;;8.25;3.20;;;;;;;16.09;35.93;102529.78;5056389;28;20167;-65
2022/04/28 01:57:11;;;;;;;8.05;3.65;;;;;;;15.86;36.19;102533.44;5056194;28;20078;-66
2022/04/28 01:59:36;;;;;;;7.72;2.97;;;;;;;15.80;35.78;102536.66;5056199;28;20025;-65
2022/04/28 02:02:01;;;;;;;5.03;3.08;;;;;;;15.74;36.70;102540.69;5065263;28;20023;-66
2022/04/28 02:04:27;;;;;;;5.60;2.88;;;;;;;15.70;35.87;102542.78;5075804;28;20471;-66
2022/04/28 02:06:52;;;;;;;4.72;2.50;;;;;;;15.65;36.49;102536.00;5075889;28;20020;-64
2022/04/28 02:09:17;;;;;;;7.70;3.63;;;;;;;15.59;36.64;102531.94;5075841;28;20021;-65
2022/04/28 02:11:43;;;;;;;4.60;2.80;;;;;;;15.56;36.69;102543.00;5075710;28;20021;-65
2022/04/28 02:14:08;;;;;;;11.35;3.50;;;;;;;15.52;36.43;102541.50;5075804;28;20433;-65
2022/04/28 02:16:33;;;;;;;5.13;2.80;;;;;;;15.47;37.22;102549.09;5075795;28;20060;-65
2022/04/28 02:18:59;;;;;;;9.00;2.65;;;;;;;15.43;37.42;102544.91;5074411;28;20032;-65
2022/04/28 02:21:24;;;;;;;6.43;2.97;;;;;;;15.40;36.21;102545.13;5075600;28;20031;-65
2022/04/28 02:23:50;;;;;;;5.47;3.65;;;;;;;15.37;36.92;102539.09;5075552;28;20050;-65
2022/04/28 02:26:15;;;;;;;5.05;2.80;;;;;;;15.34;36.52;102542.91;5075724;28;20032;-66
2022/04/28 02:28:40;;;;;;;7.97;3.00;;;;;;;15.30;37.27;102545.97;5075533;28;20111;-65
2022/04/28 02:31:06;;;;;;;6.28;3.70;;;;;;;15.27;36.70;102541.63;5057453;28;20028;-65
2022/04/28 02:33:31;;;;;;;5.13;2.72;;;;;;;15.23;36.56;102542.84;5075142;28;20055;-65
2022/04/28 02:35:56;;;;;;;7.55;3.13;;;;;;;15.19;37.57;102543.22;5075150;28;20032;-66
2022/04/28 02:38:22;;;;;;;8.55;2.95;;;;;;;15.15;37.64;102548.00;5075101;28;20021;-66
2022/04/28 02:40:47;;;;;;;7.05;2.97;;;;;;;15.12;37.18;102543.69;5075086;28;20020;-65
2022/04/28 02:43:13;;;;;;;8.77;4.10;;;;;;;15.07;36.78;102535.06;5057401;28;20111;-66
2022/04/28 02:45:38;;;;;;;4.50;3.00;;;;;;;15.04;37.30;102550.63;5074903;28;20082;-66
2022/04/28 02:48:04;;;;;;;6.78;3.28;;;;;;;15.02;37.43;102536.38;5057193;28;20063;-65
2022/04/28 02:50:29;;;;;;;11.85;3.17;;;;;;;14.99;37.00;102536.63;5074877;28;20024;-66
2022/04/28 02:52:54;;;;;;;10.15;3.28;;;;;;;14.99;37.03;102536.63;5075075;28;20050;-66
2022/04/28 02:55:20;;;;;;;4.60;2.85;;;;;;;14.97;36.92;102534.03;5075132;28;20032;-65
2022/04/28 02:57:45;;;;;;;11.73;4.03;;;;;;;14.97;37.10;102538.56;5074983;28;20121;-66
2022/04/28 03:00:11;;;;;;;5.32;3.15;;;;;;;14.97;36.94;102538.56;5074739;28;20366;-65
2022/04/28 03:02:36;;;;;;;14.60;3.38;;;;;;;14.94;37.01;102533.41;5074787;28;20099;-66
2022/04/28 03:05:04;;;;;;;8.38;3.42;;;;;;;14.96;37.78;102544.97;5074754;28;20036;-66
2022/04/28 03:13:11;;;;;;;7.20;3.63;;;;;;;15.05;37.29;102541.53;5074564;28;20036;-66
2022/04/28 03:15:39;;;;;;;5.20;3.13;;;;;;;15.10;37.78;102542.09;5039742;28;20026;-65
2022/04/28 03:18:04;;;;;;;6.75;3.72;;;;;;;15.14;38.07;102543.56;5034667;28;20021;-66
2022/04/28 03:20:30;;;;;;;11.95;3.28;;;;;;;15.19;38.15;102538.66;5034484;28;20021;-65
2022/04/28 03:22:55;;;;;;;13.35;3.92;;;;;;;15.23;38.08;102540.16;5016823;28;20032;-65
2022/04/28 03:25:20;;;;;;;9.82;3.65;;;;;;;15.26;38.47;102550.72;5034508;28;20026;-65
2022/04/28 03:27:46;;;;;;;8.93;3.53;;;;;;;15.28;37.19;102543.38;5034259;28;20057;-68
2022/04/28 03:30:12;;;;;;;8.77;3.20;;;;;;;15.31;38.13;102544.97;5033680;28;20471;-64
2022/04/28 03:32:37;;;;;;;14.45;3.55;;;;;;;15.31;37.34;102540.44;5034218;28;20032;-65
2022/04/28 03:35:03;;;;;;;11.18;4.15;;;;;;;15.33;37.17;102546.56;5034070;28;20081;-65
2022/04/28 03:37:28;;;;;;;6.90;3.25;;;;;;;15.32;38.04;102550.25;5034575;28;20040;-65
2022/04/28 03:39:53;;;;;;;7.20;3.45;;;;;;;15.34;36.84;102545.59;5034237;28;20494;-65
2022/04/28 03:42:19;;;;;;;4.45;3.58;;;;;;;15.33;37.53;102546.56;5034218;28;20032;-67
2022/04/28 03:44:45;;;;;;;8.10;3.50;;;;;;;15.31;37.89;102543.13;5041416;28;20017;-65
2022/04/28 03:47:10;;;;;;;10.32;4.65;;;;;;;15.33;37.60;102540.28;5054042;28;20020;-65
2022/04/28 03:49:35;;;;;;;12.10;3.88;;;;;;;15.32;37.15;102547.56;5054090;28;20024;-65
2022/04/28 03:52:01;;;;;;;9.13;3.83;;;;;;;15.32;37.46;102547.56;5053890;28;20036;-65
2022/04/28 03:54:26;;;;;;;12.63;4.05;;;;;;;15.32;37.96;102544.88;5053856;28;20105;-65
2022/04/28 03:56:52;;;;;;;11.55;3.92;;;;;;;15.30;37.62;102544.09;5053807;28;20024;-65
2022/04/28 03:59:17;;;;;;;8.88;3.95;;;;;;;15.30;38.47;102554.91;5053774;28;20033;-67
2022/04/28 04:01:42;;;;;;;7.40;3.22;;;;;;;15.29;37.36;102555.91;5053678;28;20470;-66
2022/04/28 04:04:08;;;;;;;9.65;4.22;;;;;;;15.29;37.48;102555.91;5035835;28;20494;-65
2022/04/28 04:06:33;;;;;;;7.88;3.88;;;;;;;15.28;37.23;102556.84;5053797;28;20467;-64
2022/04/28 04:08:58;;;;;;;7.88;3.70;;;;;;;15.27;36.95;102549.72;5053827;28;20375;-65
2022/04/28 04:11:24;;;;;;;6.10;3.42;;;;;;;15.26;38.33;102549.88;5053784;28;20025;-65
2022/04/28 04:13:50;;;;;;;7.07;3.88;;;;;;;15.25;37.37;102557.09;5053548;28;20519;-65
2022/04/28 04:16:15;;;;;;;10.77;4.13;;;;;;;15.24;37.39;102563.50;5053451;28;20029;-65
2022/04/28 04:18:41;;;;;;;9.68;4.05;;;;;;;15.25;38.23;102558.94;5053415;28;20020;-66
2022/04/28 04:21:06;;;;;;;11.25;4.35;;;;;;;15.25;38.49;102559.78;5035740;28;20025;-66
2022/04/28 04:23:32;;;;;;;10.45;4.75;;;;;;;15.27;38.17;102559.69;5053427;28;20028;-66
2022/04/28 04:25:57;;;;;;;11.60;3.67;;;;;;;15.27;37.24;102568.63;5053541;28;20025;-65
2022/04/28 04:28:23;;;;;;;6.45;3.90;;;;;;;15.28;37.15;102564.97;5035580;28;20025;-65
2022/04/28 04:33:33;;;;;;;12.10;4.72;;;;;;;15.28;38.77;102570.38;5052996;28;20473;-65
2022/04/28 04:35:58;;;;;;;9.43;3.95;;;;;;;15.30;37.44;102570.25;5053461;28;20029;-65
2022/04/28 04:38:24;;;;;;;11.23;3.85;;;;;;;15.31;38.39;102570.13;5053340;28;20142;-65
2022/04/28 04:40:49;;;;;;;14.77;4.60;;;;;;;15.33;38.70;102578.97;5053765;28;20044;-66
2022/04/28 04:43:14;;;;;;;8.32;4.05;;;;;;;15.32;38.69;102574.56;5057452;28;20021;-65
2022/04/28 04:45:43;;;;;;;9.75;3.67;;;;;;;15.35;38.25;102578.88;5057608;28;20032;-65
2022/04/28 04:48:10;;;;;;;11.30;4.30;;;;;;;15.37;38.71;102574.19;5040188;28;20115;-65
2022/04/28 04:50:36;;;;;;;7.00;4.38;;;;;;;15.39;38.38;102581.19;5057373;28;20029;-65
2022/04/28 04:53:01;;;;;;;7.22;4.13;;;;;;;15.43;38.49;102588.09;5039876;28;20025;-65
2022/04/28 04:55:26;;;;;;;11.00;4.90;;;;;;;15.47;38.10;102588.75;5057391;28;20059;-65
2022/04/28 04:57:52;;;;;;;11.73;4.63;;;;;;;15.51;37.42;102590.25;5057285;28;20053;-64
2022/04/28 05:00:17;;;;;;;13.02;4.50;;;;;;;15.56;37.41;102591.63;5057305;28;20363;-65
2022/04/28 05:02:43;;;;;;;8.07;4.22;;;;;;;15.62;38.61;102591.16;5057094;28;20060;-66
2022/04/28 05:05:08;;;;;;;9.95;4.38;;;;;;;15.67;37.43;102594.34;5057363;28;20500;-66
2022/04/28 05:07:34;;;;;;;11.10;5.85;;;;;;;15.74;37.55;102590.16;5057528;28;20020;-65
2022/04/28 05:09:59;;;;;;;9.98;4.72;;;;;;;15.83;38.20;102602.09;5057484;28;20021;-65
2022/04/28 05:12:25;;;;;;;14.82;4.95;;;;;;;15.90;37.82;102597.97;5039567;28;20040;-66
2022/04/28 05:14:50;;;;;;;7.70;3.95;;;;;;;15.97;38.24;102603.75;5057010;28;20025;-65
2022/04/28 05:17:16;;;;;;;17.58;6.00;;;;;;;16.05;38.38;102612.13;5057005;28;20021;-65
2022/04/28 05:19:42;;;;;;;11.65;4.75;;;;;;;16.13;38.28;102606.97;5056827;28;20482;-65
2022/04/28 05:22:07;;;;;;;10.07;4.30;;;;;;;16.22;38.31;102611.63;5056876;28;20141;-66
2022/04/28 05:24:33;;;;;;;10.60;4.20;;;;;;;16.30;37.22;102617.31;5057031;28;20047;-66
2022/04/28 05:26:59;;;;;;;10.82;4.88;;;;;;;16.39;36.92;102619.25;5057165;28;20482;-66
2022/04/28 05:29:24;;;;;;;10.20;5.05;;;;;;;16.47;37.53;102622.19;5056463;28;20036;-66
2022/04/28 05:31:49;;;;;;;12.82;5.13;;;;;;;16.57;37.35;102623.22;5056406;28;20029;-66
2022/04/28 05:34:15;;;;;;;7.60;4.50;;;;;;;16.67;37.79;102626.91;5056411;28;20049;-65
2022/04/28 05:36:40;;;;;;;11.32;4.38;;;;;;;16.77;38.21;102632.44;5056704;28;20118;-65
2022/04/28 05:39:06;;;;;;;10.45;4.85;;;;;;;16.88;38.04;102638.69;5056542;28;20371;-65
2022/04/28 05:41:33;;;;;;;17.10;5.15;;;;;;;16.97;38.32;102636.22;5056532;28;20029;-65
2022/04/28 05:46:43;;;;;;;9.55;5.28;;;;;;;17.21;37.50;102634.16;5041429;28;20405;-64
2022/04/28 05:49:08;;;;;;;11.95;4.85;;;;;;;17.32;37.08;102634.13;5038816;28;20020;-65
2022/04/28 05:51:34;;;;;;;9.27;5.22;;;;;;;17.48;37.78;102631.84;5056552;28;20046;-65
2022/04/28 05:53:59;;;;;;;10.55;4.70;;;;;;;17.63;37.30;102632.44;5056783;28;20075;-65
2022/04/28 05:56:25;;;;;;;9.85;4.72;;;;;;;17.79;37.06;102630.13;5056614;28;20363;-66
2022/04/28 05:58:51;;;;;;;12.88;4.93;;;;;;;17.96;35.84;102630.41;5055761;28;20078;-66
2022/04/28 06:01:16;;;;;;;10.73;4.95;;;;;;;18.12;36.85;102626.38;5038189;28;20025;-65
2022/04/28 06:03:41;;;;;;;10.07;5.00;;;;;;;18.30;36.00;102630.16;5055947;28;20079;-65
2022/04/28 06:06:07;;;;;;;12.07;5.93;;;;;;;18.46;36.06;102631.38;5057016;28;20021;-66
2022/04/28 06:08:33;;;;;;;11.63;4.97;;;;;;;18.61;35.81;102626.47;5056030;28;20036;-66
2022/04/28 06:10:59;;;;;;;8.73;4.60;;;;;;;18.78;36.28;102633.97;5038306;28;20367;-65
2022/04/28 06:13:24;;;;;;;14.48;5.50;;;;;;;18.94;36.11;102641.59;5056362;28;20029;-66
2022/04/28 06:15:50;;;;;;;10.93;5.50;;;;;;;19.05;35.83;102639.59;5056006;28;20033;-65
2022/04/28 06:18:15;;;;;;;15.75;5.43;;;;;;;19.12;36.31;102629.06;5056343;28;20025;-66
2022/04/28 06:20:40;;;;;;;13.02;5.60;;;;;;;19.25;36.18;102643.22;5056180;28;20021;-65
2022/04/28 06:23:06;;;;;;;13.52;5.97;;;;;;;19.39;35.33;102636.53;5056139;28;20028;-65
2022/04/28 06:25:32;;;;;;;18.20;6.13;;;;;;;19.51;35.98;102640.84;5056143;28;20043;-65
2022/04/28 06:27:57;;;;;;;13.18;4.80;;;;;;;19.64;35.79;102644.13;5056340;28;20052;-65
2022/04/28 06:30:23;;;;;;;11.05;5.60;;;;;;;19.74;35.30;102642.25;5056155;28;20025;-65
2022/04/28 06:32:49;;;;;;;14.45;5.40;;;;;;;19.84;35.55;102648.56;5056071;28;20543;-66
2022/04/28 06:35:15;;;;;;;12.50;6.18;;;;;;;19.96;35.16;102658.25;5055283;28;20512;-66
2022/04/28 06:37:40;;;;;;;14.18;5.97;;;;;;;20.11;35.22;102655.94;5038254;28;20021;-65
2022/04/28 06:40:06;;;;;;;12.30;5.72;;;;;;;20.24;34.49;102662.81;5055805;28;20052;-65
2022/04/28 06:42:32;;;;;;;14.63;5.10;;;;;;;20.39;34.81;102659.63;5055907;28;20025;-65
2022/04/28 06:44:57;;;;;;;9.98;5.32;;;;;;;20.56;35.04;102661.56;5055837;28;20465;-65
2022/04/28 06:47:23;;;;;;;18.33;6.15;;;;;;;20.71;34.32;102666.41;5055677;28;20036;-65
2022/04/28 06:49:48;;;;;;;13.00;6.13;;;;;;;20.89;34.56;102666.44;5055751;28;20040;-65
2022/04/28 06:52:13;;;;;;;11.63;5.93;;;;;;;21.05;34.47;102669.34;5055784;28;20024;-64
2022/04/28 06:54:39;;;;;;;10.85;6.15;;;;;;;21.20;34.46;102662.41;5055812;28;20025;-65
2022/04/28 06:57:05;;;;;;;16.08;6.28;;;;;;;21.38;34.13;102665.16;5055154;28;20017;-65
2022/04/28 06:59:30;;;;;;;14.98;5.47;;;;;;;21.54;33.77;102664.47;5055628;28;20100;-65
2022/04/28 07:01:55;;;;;;;14.25;6.00;;;;;;;21.70;33.13;102668.19;5055125;28;20474;-65
2022/04/28 07:04:21;;;;;;;12.50;6.25;;;;;;;21.80;33.70;102665.41;5054150;28;20117;-65
2022/04/28 07:06:46;;;;;;;12.23;6.00;;;;;;;21.96;33.66;102668.28;5058440;28;20025;-65
2022/04/28 07:09:12;;;;;;;13.30;6.00;;;;;;;22.10;33.45;102673.19;5074779;28;20024;-65
2022/04/28 07:11:37;;;;;;;17.90;7.03;;;;;;;22.27;33.44;102669.53;5074727;28;20039;-65
2022/04/28 07:14:02;;;;;;;11.93;5.93;;;;;;;22.44;32.98;102671.38;5057134;28;20024;-65
2022/04/28 07:16:28;;;;;;;10.32;5.88;;;;;;;22.64;32.61;102682.09;5057480;28;20030;-65
2022/04/28 07:18:53;;;;;;;10.30;6.00;;;;;;;22.81;32.52;102679.25;5075252;28;20028;-65
2022/04/28 07:21:18;;;;;;;12.63;5.82;;;;;;;23.01;33.05;102685.31;5075035;28;20025;-65
2022/04/28 07:23:44;;;;;;;13.85;6.32;;;;;;;23.19;32.35;102688.81;5074659;28;20020;-64
2022/04/28 07:26:09;;;;;;;11.02;5.93;;;;;;;23.34;31.96;102684.41;5075124;28;20529;-65
2022/04/28 07:28:34;;;;;;;12.50;5.80;;;;;;;23.52;32.15;102687.91;5074328;28;20016;-65
2022/04/28 07:31:00;;;;;;;13.98;6.40;;;;;;;23.67;32.21;102688.94;5074622;28;20021;-65
2022/04/28 07:33:26;;;;;;;16.17;6.57;;;;;;;23.86;31.37;102693.25;5074803;28;20028;-65
2022/04/28 07:35:51;;;;;;;13.18;6.60;;;;;;;24.01;31.86;102698.91;5074283;28;20052;-65
2022/04/28 07:38:17;;;;;;;16.83;7.32;;;;;;;24.17;31.55;102696.19;5074895;28;20024;-65
2022/04/28 07:40:42;;;;;;;19.17;6.43;;;;;;;24.36;32.07;102695.81;5056962;28;20019;-65
2022/04/28 07:43:08;;;;;;;13.75;6.18;;;;;;;24.54;31.83;102699.19;5074958;28;20032;-65
2022/04/28 07:45:33;;;;;;;11.40;6.00;;;;;;;24.73;31.71;102704.28;5074417;28;20028;-65
2022/04/28 07:47:58;;;;;;;13.65;6.25;;;;;;;24.92;30.61;102696.69;5074522;28;20059;-65
2022/04/28 07:50:24;;;;;;;11.00;6.60;;;;;;;25.07;30.91;102700.41;5074243;28;20028;-66
2022/04/28 07:52:50;;;;;;;10.15;5.57;;;;;;;25.25;30.66;102704.59;5056870;28;20028;-65
2022/04/28 07:55:15;;;;;;;11.43;6.50;;;;;;;25.43;30.63;102707.09;5074523;28;20029;-64
2022/04/28 07:57:44;;;;;;;12.38;5.68;;;;;;;25.58;30.38;102702.53;5074437;28;20388;-65
2022/04/28 08:00:10;;;;;;;10.13;5.88;;;;;;;25.73;30.05;102706.22;5074041;28;20465;-64
2022/04/28 08:02:38;;;;;;;20.33;7.75;;;;;;;25.86;30.00;102709.19;5074139;28;20020;-65
2022/04/28 08:05:05;;;;;;;16.13;6.60;;;;;;;26.01;29.81;102710.13;5074279;28;20101;-65
2022/04/28 08:07:31;;;;;;;11.20;5.93;;;;;;;26.17;29.43;102711.03;5055592;28;20017;-65
2022/04/28 08:09:57;;;;;;;11.60;6.88;;;;;;;26.32;29.47;102712.78;5074054;28;20020;-65
2022/04/28 08:12:22;;;;;;;9.15;5.38;;;;;;;26.47;29.25;102715.53;5073861;28;20567;-65
2022/04/28 08:14:48;;;;;;;8.48;6.10;;;;;;;26.56;29.25;102718.03;5073684;28;20037;-65
2022/04/28 08:17:13;;;;;;;15.95;6.13;;;;;;;26.69;29.25;102722.84;5073556;28;20024;-65
2022/04/28 08:19:38;;;;;;;14.27;6.22;;;;;;;26.82;29.30;102720.34;5073776;28;20103;-65
2022/04/28 08:22:04;;;;;;;12.27;6.63;;;;;;;26.96;28.72;102724.13;5059230;28;20025;-65
2022/04/28 08:24:29;;;;;;;20.30;6.22;;;;;;;27.09;29.00;102719.66;5033638;28;20036;-65
2022/04/28 08:26:55;;;;;;;12.20;6.25;;;;;;;27.27;28.92;102715.66;5033814;28;20116;-65
2022/04/28 08:29:23;;;;;;;10.73;5.82;;;;;;;27.41;28.33;102712.03;5033603;28;20053;-65
2022/04/28 08:31:49;;;;;;;14.48;6.82;;;;;;;27.56;28.70;102716.44;5033459;28;20449;-65
2022/04/28 08:34:15;;;;;;;14.35;6.60;;;;;;;27.67;28.00;102712.31;5033557;28;20073;-65
2022/04/28 08:36:41;;;;;;;16.30;6.38;;;;;;;27.80;28.05;102714.38;5033130;28;20445;-65
2022/04/28 08:39:07;;;;;;;11.50;6.25;;;;;;;27.89;28.02;102716.78;5033385;28;20035;-65
2022/04/28 08:41:34;;;;;;;12.73;6.57;;;;;;;27.99;27.93;102711.81;5033395;28;20479;-65
2022/04/28 08:44:03;;;;;;;12.18;6.65;;;;;;;28.10;27.40;102713.22;5033431;28;20029;-65
2022/04/28 08:49:14;;;;;;;11.30;6.20;;;;;;;28.34;28.12;102723.78;5033606;28;20088;-65
2022/04/28 08:51:39;;;;;;;13.57;7.80;;;;;;;28.47;28.03;102723.06;5033702;28;20079;-65
2022/04/28 08:54:05;;;;;;;10.70;6.20;;;;;;;28.57;27.56;102715.25;5033528;28;20021;-66
2022/04/28 08:56:31;;;;;;;9.45;5.65;;;;;;;28.67;27.50;102713.88;5033711;28;20029;-65
2022/04/28 08:58:57;;;;;;;16.38;6.22;;;;;;;28.80;26.67;102716.75;5016179;28;20025;-65
2022/04/28 09:01:27;;;;;;;11.43;5.78;;;;;;;28.93;26.96;102723.38;5016395;28;20025;-65
2022/04/28 09:03:54;;;;;;;9.60;5.57;;;;;;;29.10;26.67;102725.59;5015858;28;20025;-65
2022/04/28 09:06:31;;;;;;;14.18;6.13;;;;;;;29.26;27.26;102729.94;5015639;28;20079;-66
2022/04/28 09:09:00;;;;;;;11.52;6.05;;;;;;;29.40;26.30;102729.78;5033195;28;20037;-65
2022/04/28 09:11:28;;;;;;;13.35;6.55;;;;;;;29.48;26.52;102730.66;5033283;28;20032;-65
2022/04/28 09:14:09;;;;;;;12.23;6.88;;;;;;;29.59;25.62;102728.16;5032557;28;20037;-65
2022/04/28 09:16:38;;;;;;;12.73;7.63;;;;;;;29.71;26.26;102731.13;5033105;28;20025;-65
2022/04/28 09:19:04;;;;;;;12.43;6.22;;;;;;;29.83;26.00;102732.25;5032987;28;20032;-66
2022/04/28 09:21:34;;;;;;;11.70;7.30;;;;;;;29.93;25.66;102718.88;5032909;28;20018;-65
2022/04/28 09:23:59;;;;;;;12.32;5.90;;;;;;;30.07;25.65;102715.06;5033189;28;20033;-65
2022/04/28 09:26:24;;;;;;;8.80;5.93;;;;;;;30.20;26.21;102722.53;5033046;28;20474;-65
2022/04/28 09:28:51;;;;;;;14.32;6.35;;;;;;;30.33;25.42;102722.50;5036177;28;20368;-65
2022/04/28 09:31:18;;;;;;;10.25;5.95;;;;;;;30.43;25.47;102715.50;5036347;28;20028;-66
2022/04/28 09:33:46;;;;;;;11.77;7.00;;;;;;;30.56;26.06;102720.19;5036116;28;20457;-64
2022/04/28 09:36:12;;;;;;;10.13;6.20;;;;;;;30.73;25.76;102715.91;5019168;28;20546;-65
2022/04/28 09:38:37;;;;;;;9.77;6.85;;;;;;;30.81;25.42;102706.50;5036682;28;20471;-65
2022/04/28 09:43:55;;;;;;;13.93;5.90;;;;;;;30.97;25.01;102708.81;5021352;28;20031;-65
2022/04/28 09:46:23;;;;;;;11.93;6.20;;;;;;;31.09;24.79;102715.38;5019135;28;20041;-66
2022/04/28 09:48:50;;;;;;;15.05;6.57;;;;;;;31.33;24.80;102719.31;5036630;28;20499;-66
2022/04/28 09:51:20;;;;;;;12.27;7.22;;;;;;;31.69;24.06;102712.09;5035030;28;20445;-66
2022/04/28 09:53:47;;;;;;;13.57;6.97;;;;;;;32.27;23.90;102720.25;5036325;28;20112;-66
2022/04/28 09:56:14;;;;;;;13.15;6.32;;;;;;;33.03;22.78;102720.72;5036281;28;20030;-66
2022/04/28 09:58:40;;;;;;;10.07;6.30;;;;;;;34.17;22.48;102712.31;5035153;28;20025;-66
2022/04/28 10:01:06;;;;;;;12.05;6.60;;;;;;;35.63;20.91;102709.19;5035667;28;20405;-67
2022/04/28 10:03:33;;;;;;;10.65;5.93;;;;;;;35.74;21.09;102713.84;5034893;28;20029;-66
2022/04/28 10:06:02;;;;;;;9.23;5.60;;;;;;;35.18;20.90;102697.13;5036150;28;20156;-65
2022/04/28 10:08:28;;;;;;;8.32;5.05;;;;;;;34.81;21.31;102697.44;5036110;28;20029;-66
2022/04/28 10:10:56;;;;;;;10.65;6.25;;;;;;;34.53;21.95;102705.66;5035816;28;20079;-66
2022/04/28 10:13:21;;;;;;;10.75;6.05;;;;;;;34.38;21.21;102703.34;5018601;28;20480;-66
2022/04/28 10:15:50;;;;;;;9.38;5.22;;;;;;;34.38;22.47;102703.34;5036029;28;20104;-66
2022/04/28 10:18:17;;;;;;;10.90;5.80;;;;;;;34.48;21.50;102698.03;5036125;28;20033;-66
2022/04/28 10:20:45;;;;;;;11.30;6.30;;;;;;;34.60;21.78;102698.06;5036207;28;20021;-66
2022/04/28 10:23:12;;;;;;;11.07;5.65;;;;;;;34.70;21.64;102689.94;5036180;28;20493;-66
2022/04/28 10:34:26;;;;;;;7.53;5.83;;;;;;;35.60;20.77;102691.00;5035413;28;20152;-66
2022/04/28 10:36:56;;;;;;;13.93;5.68;;;;;;;35.80;20.57;102696.13;5035664;28;20097;-66
2022/04/28 10:39:39;;;;;;;10.02;5.53;;;;;;;36.02;20.26;102685.91;5033523;28;20076;-66
2022/04/28 10:42:11;;;;;;;9.90;5.43;;;;;;;36.20;19.98;102691.25;5035789;28;20025;-66
2022/04/28 10:44:40;;;;;;;15.25;6.30;;;;;;;36.32;20.50;102688.38;5035419;28;20049;-65
2022/04/28 10:47:07;;;;;;;9.00;5.68;;;;;;;36.44;20.01;102691.03;5035229;28;20029;-65
2022/04/28 10:49:39;;;;;;;10.85;6.75;;;;;;;36.48;19.70;102681.91;5035498;28;20033;-66
2022/04/28 10:52:05;;;;;;;9.68;5.72;;;;;;;36.57;19.78;102697.16;5035425;28;20028;-65
2022/04/28 10:54:46;;;;;;;13.32;6.38;;;;;;;36.60;19.49;102693.00;5035457;28;20108;-66
2022/04/28 10:57:12;;;;;;;10.03;5.90;;;;;;;36.62;19.54;102685.22;5017601;28;20036;-65
2022/04/28 10:59:39;;;;;;;12.63;6.45;;;;;;;36.73;19.43;102687.03;5035616;28;20017;-65
2022/04/28 11:02:15;;;;;;;13.52;6.18;;;;;;;36.90;19.27;102679.44;5047608;28;20052;-66
2022/04/28 11:04:42;;;;;;;14.55;6.25;;;;;;;36.97;19.45;102693.25;5054907;28;20048;-65
2022/04/28 11:07:12;;;;;;;11.93;6.18;;;;;;;37.09;19.35;102689.22;5037683;28;20386;-65
2022/04/28 11:09:42;;;;;;;11.27;6.40;;;;;;;37.24;19.24;102681.00;5036934;28;20028;-66
2022/04/28 11:12:08;;;;;;;10.40;6.45;;;;;;;37.34;19.00;102680.28;5055464;28;20033;-66
2022/04/28 11:14:52;;;;;;;12.98;6.90;;;;;;;37.36;18.97;102683.66;5056047;28;20082;-66
2022/04/28 11:17:21;;;;;;;10.27;6.65;;;;;;;37.34;18.71;102680.28;5055294;28;20024;-66
2022/04/28 11:19:46;;;;;;;8.57;6.57;;;;;;;37.37;19.04;102673.31;5020490;28;20100;-66
2022/04/28 11:22:12;;;;;;;7.85;6.35;;;;;;;37.45;19.34;102675.66;5054949;28;20084;-65
2022/04/28 11:24:42;;;;;;;11.90;6.28;;;;;;;37.46;18.71;102666.16;5054835;28;20021;-66
2022/04/28 11:27:07;;;;;;;15.43;5.95;;;;;;;37.44;18.85;102674.00;5054072;28;20043;-66
2022/04/28 11:29:36;;;;;;;12.02;6.45;;;;;;;37.48;18.44;102669.53;5034106;28;20021;-66
2022/04/28 11:32:02;;;;;;;8.68;5.78;;;;;;;37.50;18.70;102673.75;5031082;28;20035;-66
2022/04/28 11:34:30;;;;;;;12.32;5.47;;;;;;;37.51;18.78;102666.22;5054505;28;20049;-66
2022/04/28 11:36:56;;;;;;;9.88;6.55;;;;;;;37.54;18.78;102674.09;5036645;28;20446;-65
2022/04/28 11:39:24;;;;;;;8.02;5.55;;;;;;;37.53;18.34;102662.03;5054318;28;20108;-66
2022/04/28 11:41:52;;;;;;;9.52;5.65;;;;;;;37.55;19.04;102668.22;5054395;28;20033;-66
2022/04/28 11:44:18;;;;;;;13.43;5.60;;;;;;;37.61;18.74;102669.09;5036865;28;20025;-66
2022/04/28 11:46:51;;;;;;;8.60;5.88;;;;;;;37.69;18.08;102663.03;5054155;28;20033;-65
2022/04/28 11:49:17;;;;;;;8.23;5.65;;;;;;;37.76;18.43;102663.66;5054695;28;20539;-65
2022/04/28 11:51:43;;;;;;;8.48;6.28;;;;;;;37.78;18.21;102664.22;5053900;28;20550;-65